sensor_id;sensor_type;location;lat;lon;timestamp;P1;durP1;ratioP1;P2;durP2;ratioP2
2934;SDS011;2462;51.456;7.248;2023-06-22T00:01:18;2.70;;;2.50;;
2934;SDS011;2462;51.456;7.248;2023-06-22T00:03:44;2.67;;;2.47;;
2934;SDS011;2462;51.456;7.248;2023-06-22T00:06:09;3.27;;;2.70;;
2934;SDS011;2462;51.456;7.248;2023-06-22T00:08:35;2.67;;;2.47;;
2934;SDS011;2462;51.456;7.248;2023-06-22T00:11:00;2.77;;;2.57;;
2934;SDS011;2462;51.456;7.248;2023-06-22T00:13:26;3.47;;;3.17;;
2934;SDS011;2462;51.456;7.248;2023-06-22T00:15:51;2.50;;;2.30;;
2934;SDS011;2462;51.456;7.248;2023-06-22T00:18:17;2.37;;;2.17;;
2934;SDS011;2462;51.456;7.248;2023-06-22T00:20:43;3.33;;;2.43;;
2934;SDS011;2462;51.456;7.248;2023-06-22T00:23:10;2.57;;;2.37;;
2934;SDS011;2462;51.456;7.248;2023-06-22T00:25:36;3.30;;;3.00;;
2934;SDS011;2462;51.456;7.248;2023-06-22T00:28:02;2.67;;;2.47;;
2934;SDS011;2462;51.456;7.248;2023-06-22T00:30:29;2.23;;;2.00;;
2934;SDS011;2462;51.456;7.248;2023-06-22T00:32:55;2.57;;;2.37;;
2934;SDS011;2462;51.456;7.248;2023-06-22T00:35:21;3.93;;;2.63;;
2934;SDS011;2462;51.456;7.248;2023-06-22T00:37:46;2.93;;;2.73;;
2934;SDS011;2462;51.456;7.248;2023-06-22T00:40:12;2.57;;;2.37;;
2934;SDS011;2462;51.456;7.248;2023-06-22T00:42:39;2.63;;;2.20;;
2934;SDS011;2462;51.456;7.248;2023-06-22T00:45:05;2.90;;;2.50;;
2934;SDS011;2462;51.456;7.248;2023-06-22T00:47:31;3.00;;;2.30;;
2934;SDS011;2462;51.456;7.248;2023-06-22T00:49:58;2.23;;;2.03;;
2934;SDS011;2462;51.456;7.248;2023-06-22T00:52:25;2.57;;;2.37;;
2934;SDS011;2462;51.456;7.248;2023-06-22T00:54:54;2.50;;;2.30;;
2934;SDS011;2462;51.456;7.248;2023-06-22T00:57:21;2.50;;;2.30;;
2934;SDS011;2462;51.456;7.248;2023-06-22T00:59:50;2.27;;;2.07;;
2934;SDS011;2462;51.456;7.248;2023-06-22T01:02:16;2.40;;;2.20;;
2934;SDS011;2462;51.456;7.248;2023-06-22T01:04:41;2.83;;;2.53;;
2934;SDS011;2462;51.456;7.248;2023-06-22T01:07:12;2.43;;;2.23;;
2934;SDS011;2462;51.456;7.248;2023-06-22T01:12:45;2.20;;;2.00;;
2934;SDS011;2462;51.456;7.248;2023-06-22T01:15:33;2.73;;;2.53;;
2934;SDS011;2462;51.456;7.248;2023-06-22T01:18:04;2.80;;;2.60;;
2934;SDS011;2462;51.456;7.248;2023-06-22T01:20:30;2.57;;;2.30;;
2934;SDS011;2462;51.456;7.248;2023-06-22T01:25:33;2.63;;;2.43;;
2934;SDS011;2462;51.456;7.248;2023-06-22T01:30:49;2.80;;;2.60;;
2934;SDS011;2462;51.456;7.248;2023-06-22T01:33:28;2.50;;;2.30;;
2934;SDS011;2462;51.456;7.248;2023-06-22T01:35:55;2.93;;;2.47;;
2934;SDS011;2462;51.456;7.248;2023-06-22T01:38:22;2.73;;;2.53;;
2934;SDS011;2462;51.456;7.248;2023-06-22T01:40:48;2.43;;;2.23;;
2934;SDS011;2462;51.456;7.248;2023-06-22T01:43:14;2.23;;;2.03;;
2934;SDS011;2462;51.456;7.248;2023-06-22T01:45:40;2.67;;;2.43;;
2934;SDS011;2462;51.456;7.248;2023-06-22T01:48:07;2.60;;;2.40;;
2934;SDS011;2462;51.456;7.248;2023-06-22T01:50:33;3.10;;;2.80;;
2934;SDS011;2462;51.456;7.248;2023-06-22T01:52:58;2.10;;;1.90;;
2934;SDS011;2462;51.456;7.248;2023-06-22T01:55:24;2.70;;;2.50;;
2934;SDS011;2462;51.456;7.248;2023-06-22T01:57:49;3.60;;;2.37;;
2934;SDS011;2462;51.456;7.248;2023-06-22T02:00:18;2.27;;;2.07;;
2934;SDS011;2462;51.456;7.248;2023-06-22T02:05:19;2.50;;;2.30;;
2934;SDS011;2462;51.456;7.248;2023-06-22T02:07:56;2.40;;;2.20;;
2934;SDS011;2462;51.456;7.248;2023-06-22T02:10:30;2.53;;;2.33;;
2934;SDS011;2462;51.456;7.248;2023-06-22T02:12:57;4.30;;;2.50;;
2934;SDS011;2462;51.456;7.248;2023-06-22T02:15:24;2.40;;;2.20;;
2934;SDS011;2462;51.456;7.248;2023-06-22T02:17:50;2.50;;;2.30;;
2934;SDS011;2462;51.456;7.248;2023-06-22T02:20:16;2.00;;;1.80;;
2934;SDS011;2462;51.456;7.248;2023-06-22T02:22:41;2.03;;;1.93;;
2934;SDS011;2462;51.456;7.248;2023-06-22T02:25:07;2.70;;;2.50;;
2934;SDS011;2462;51.456;7.248;2023-06-22T02:27:33;2.80;;;2.20;;
2934;SDS011;2462;51.456;7.248;2023-06-22T02:29:59;2.97;;;2.77;;
2934;SDS011;2462;51.456;7.248;2023-06-22T02:32:25;2.80;;;2.60;;
2934;SDS011;2462;51.456;7.248;2023-06-22T02:34:52;2.57;;;2.37;;
2934;SDS011;2462;51.456;7.248;2023-06-22T02:37:18;3.10;;;2.27;;
2934;SDS011;2462;51.456;7.248;2023-06-22T02:39:43;2.60;;;2.40;;
2934;SDS011;2462;51.456;7.248;2023-06-22T02:42:09;3.03;;;2.73;;
2934;SDS011;2462;51.456;7.248;2023-06-22T02:44:37;2.70;;;2.30;;
2934;SDS011;2462;51.456;7.248;2023-06-22T02:47:03;2.30;;;2.10;;
2934;SDS011;2462;51.456;7.248;2023-06-22T02:49:28;2.43;;;2.23;;
2934;SDS011;2462;51.456;7.248;2023-06-22T02:51:54;2.70;;;2.50;;
2934;SDS011;2462;51.456;7.248;2023-06-22T02:54:20;2.50;;;2.30;;
2934;SDS011;2462;51.456;7.248;2023-06-22T02:56:46;2.70;;;2.50;;
2934;SDS011;2462;51.456;7.248;2023-06-22T02:59:12;2.77;;;2.57;;
2934;SDS011;2462;51.456;7.248;2023-06-22T03:01:38;2.30;;;2.10;;
2934;SDS011;2462;51.456;7.248;2023-06-22T03:04:07;2.53;;;2.30;;
2934;SDS011;2462;51.456;7.248;2023-06-22T03:06:33;2.57;;;2.37;;
2934;SDS011;2462;51.456;7.248;2023-06-22T03:08:59;2.87;;;2.10;;
2934;SDS011;2462;51.456;7.248;2023-06-22T03:11:26;2.73;;;2.53;;
2934;SDS011;2462;51.456;7.248;2023-06-22T03:13:51;3.10;;;2.10;;
2934;SDS011;2462;51.456;7.248;2023-06-22T03:16:18;2.23;;;2.03;;
2934;SDS011;2462;51.456;7.248;2023-06-22T03:18:44;2.70;;;2.50;;
2934;SDS011;2462;51.456;7.248;2023-06-22T03:21:09;2.30;;;2.17;;
2934;SDS011;2462;51.456;7.248;2023-06-22T03:23:35;2.43;;;2.13;;
2934;SDS011;2462;51.456;7.248;2023-06-22T03:26:01;2.07;;;1.97;;
2934;SDS011;2462;51.456;7.248;2023-06-22T03:28:27;3.00;;;2.80;;
2934;SDS011;2462;51.456;7.248;2023-06-22T03:30:52;2.33;;;2.03;;
2934;SDS011;2462;51.456;7.248;2023-06-22T03:33:18;2.30;;;2.10;;
2934;SDS011;2462;51.456;7.248;2023-06-22T03:35:43;2.33;;;2.13;;
2934;SDS011;2462;51.456;7.248;2023-06-22T03:38:09;2.30;;;2.10;;
2934;SDS011;2462;51.456;7.248;2023-06-22T03:40:34;2.33;;;2.13;;
2934;SDS011;2462;51.456;7.248;2023-06-22T03:43:00;2.37;;;1.73;;
2934;SDS011;2462;51.456;7.248;2023-06-22T03:45:25;2.40;;;2.20;;
2934;SDS011;2462;51.456;7.248;2023-06-22T03:47:51;2.50;;;2.13;;
2934;SDS011;2462;51.456;7.248;2023-06-22T03:50:16;2.50;;;2.10;;
2934;SDS011;2462;51.456;7.248;2023-06-22T03:52:45;2.83;;;2.50;;
2934;SDS011;2462;51.456;7.248;2023-06-22T03:55:10;2.60;;;2.40;;
2934;SDS011;2462;51.456;7.248;2023-06-22T03:57:36;3.00;;;2.80;;
2934;SDS011;2462;51.456;7.248;2023-06-22T04:00:02;2.60;;;2.40;;
2934;SDS011;2462;51.456;7.248;2023-06-22T04:02:30;2.33;;;2.13;;
2934;SDS011;2462;51.456;7.248;2023-06-22T04:04:56;2.40;;;2.20;;
2934;SDS011;2462;51.456;7.248;2023-06-22T04:07:22;2.23;;;2.07;;
2934;SDS011;2462;51.456;7.248;2023-06-22T04:09:47;3.20;;;2.57;;
2934;SDS011;2462;51.456;7.248;2023-06-22T04:12:13;2.50;;;2.30;;
2934;SDS011;2462;51.456;7.248;2023-06-22T04:14:38;2.33;;;2.20;;
2934;SDS011;2462;51.456;7.248;2023-06-22T04:17:04;2.80;;;2.53;;
2934;SDS011;2462;51.456;7.248;2023-06-22T04:19:30;2.00;;;1.90;;
2934;SDS011;2462;51.456;7.248;2023-06-22T04:21:55;2.70;;;2.50;;
2934;SDS011;2462;51.456;7.248;2023-06-22T04:24:21;2.47;;;2.27;;
2934;SDS011;2462;51.456;7.248;2023-06-22T04:26:47;2.50;;;2.30;;
2934;SDS011;2462;51.456;7.248;2023-06-22T04:29:12;2.50;;;2.30;;
2934;SDS011;2462;51.456;7.248;2023-06-22T04:31:38;2.43;;;2.23;;
2934;SDS011;2462;51.456;7.248;2023-06-22T04:34:04;2.43;;;2.23;;
2934;SDS011;2462;51.456;7.248;2023-06-22T04:36:35;2.60;;;1.77;;
2934;SDS011;2462;51.456;7.248;2023-06-22T04:39:03;2.53;;;2.10;;
2934;SDS011;2462;51.456;7.248;2023-06-22T04:41:30;2.20;;;2.00;;
2934;SDS011;2462;51.456;7.248;2023-06-22T04:44:06;2.70;;;2.50;;
2934;SDS011;2462;51.456;7.248;2023-06-22T04:46:32;2.60;;;2.40;;
2934;SDS011;2462;51.456;7.248;2023-06-22T04:49:02;5.10;;;4.70;;
2934;SDS011;2462;51.456;7.248;2023-06-22T04:51:40;14.90;;;13.30;;
2934;SDS011;2462;51.456;7.248;2023-06-22T04:54:07;14.57;;;13.23;;
2934;SDS011;2462;51.456;7.248;2023-06-22T04:56:33;15.87;;;14.27;;
2934;SDS011;2462;51.456;7.248;2023-06-22T04:58:59;16.03;;;13.47;;
2934;SDS011;2462;51.456;7.248;2023-06-22T05:01:25;16.60;;;14.40;;
2934;SDS011;2462;51.456;7.248;2023-06-22T05:03:51;16.27;;;14.60;;
2934;SDS011;2462;51.456;7.248;2023-06-22T05:06:23;15.50;;;13.87;;
2934;SDS011;2462;51.456;7.248;2023-06-22T05:08:50;17.00;;;15.30;;
2934;SDS011;2462;51.456;7.248;2023-06-22T05:11:24;17.40;;;15.60;;
2934;SDS011;2462;51.456;7.248;2023-06-22T05:13:53;17.97;;;15.97;;
2934;SDS011;2462;51.456;7.248;2023-06-22T05:16:19;16.30;;;14.70;;
2934;SDS011;2462;51.456;7.248;2023-06-22T05:18:52;16.37;;;14.70;;
2934;SDS011;2462;51.456;7.248;2023-06-22T05:21:21;19.90;;;15.20;;
2934;SDS011;2462;51.456;7.248;2023-06-22T05:23:52;16.00;;;14.50;;
2934;SDS011;2462;51.456;7.248;2023-06-22T05:26:19;14.97;;;13.00;;
2934;SDS011;2462;51.456;7.248;2023-06-22T05:28:45;16.17;;;14.23;;
2934;SDS011;2462;51.456;7.248;2023-06-22T05:31:14;15.47;;;13.87;;
2934;SDS011;2462;51.456;7.248;2023-06-22T05:33:43;17.17;;;14.67;;
2934;SDS011;2462;51.456;7.248;2023-06-22T05:36:09;19.23;;;14.20;;
2934;SDS011;2462;51.456;7.248;2023-06-22T05:38:35;18.10;;;15.27;;
2934;SDS011;2462;51.456;7.248;2023-06-22T05:41:01;17.07;;;14.50;;
2934;SDS011;2462;51.456;7.248;2023-06-22T05:43:27;15.03;;;13.53;;
2934;SDS011;2462;51.456;7.248;2023-06-22T05:45:53;17.40;;;15.53;;
2934;SDS011;2462;51.456;7.248;2023-06-22T05:48:18;16.70;;;15.00;;
2934;SDS011;2462;51.456;7.248;2023-06-22T05:50:44;18.00;;;13.80;;
2934;SDS011;2462;51.456;7.248;2023-06-22T05:53:09;17.37;;;14.40;;
2934;SDS011;2462;51.456;7.248;2023-06-22T05:55:35;14.80;;;13.40;;
2934;SDS011;2462;51.456;7.248;2023-06-22T05:58:01;15.47;;;13.80;;
2934;SDS011;2462;51.456;7.248;2023-06-22T06:00:28;15.67;;;12.70;;
2934;SDS011;2462;51.456;7.248;2023-06-22T06:02:54;14.77;;;13.37;;
2934;SDS011;2462;51.456;7.248;2023-06-22T06:05:20;14.40;;;12.80;;
2934;SDS011;2462;51.456;7.248;2023-06-22T06:07:45;15.27;;;13.03;;
2934;SDS011;2462;51.456;7.248;2023-06-22T06:10:11;14.70;;;12.93;;
2934;SDS011;2462;51.456;7.248;2023-06-22T06:12:37;17.47;;;12.00;;
2934;SDS011;2462;51.456;7.248;2023-06-22T06:15:03;15.40;;;13.80;;
2934;SDS011;2462;51.456;7.248;2023-06-22T06:17:29;14.10;;;11.43;;
2934;SDS011;2462;51.456;7.248;2023-06-22T06:19:55;16.80;;;11.77;;
2934;SDS011;2462;51.456;7.248;2023-06-22T06:22:20;12.37;;;11.07;;
2934;SDS011;2462;51.456;7.248;2023-06-22T06:24:47;14.47;;;12.90;;
2934;SDS011;2462;51.456;7.248;2023-06-22T06:27:13;14.33;;;10.70;;
2934;SDS011;2462;51.456;7.248;2023-06-22T06:29:39;12.60;;;11.30;;
2934;SDS011;2462;51.456;7.248;2023-06-22T06:32:04;13.70;;;12.23;;
2934;SDS011;2462;51.456;7.248;2023-06-22T06:34:30;13.57;;;12.00;;
2934;SDS011;2462;51.456;7.248;2023-06-22T06:36:56;13.23;;;11.73;;
2934;SDS011;2462;51.456;7.248;2023-06-22T06:39:22;11.87;;;10.63;;
2934;SDS011;2462;51.456;7.248;2023-06-22T06:41:47;14.07;;;12.67;;
2934;SDS011;2462;51.456;7.248;2023-06-22T06:44:13;13.73;;;11.60;;
2934;SDS011;2462;51.456;7.248;2023-06-22T06:46:39;13.57;;;12.27;;
2934;SDS011;2462;51.456;7.248;2023-06-22T06:49:04;17.70;;;12.70;;
2934;SDS011;2462;51.456;7.248;2023-06-22T06:51:30;13.80;;;11.60;;
2934;SDS011;2462;51.456;7.248;2023-06-22T06:53:56;14.10;;;12.60;;
2934;SDS011;2462;51.456;7.248;2023-06-22T06:56:21;13.67;;;12.23;;
2934;SDS011;2462;51.456;7.248;2023-06-22T06:58:49;12.37;;;11.07;;
2934;SDS011;2462;51.456;7.248;2023-06-22T07:01:15;15.23;;;11.33;;
2934;SDS011;2462;51.456;7.248;2023-06-22T07:03:44;10.70;;;9.10;;
2934;SDS011;2462;51.456;7.248;2023-06-22T07:06:10;9.60;;;7.60;;
2934;SDS011;2462;51.456;7.248;2023-06-22T07:08:35;10.23;;;6.80;;
2934;SDS011;2462;51.456;7.248;2023-06-22T07:11:01;7.03;;;6.33;;
2934;SDS011;2462;51.456;7.248;2023-06-22T07:13:27;11.43;;;6.97;;
2934;SDS011;2462;51.456;7.248;2023-06-22T07:15:53;7.47;;;5.80;;
2934;SDS011;2462;51.456;7.248;2023-06-22T07:18:18;9.63;;;6.60;;
2934;SDS011;2462;51.456;7.248;2023-06-22T07:20:44;7.03;;;5.60;;
2934;SDS011;2462;51.456;7.248;2023-06-22T07:23:09;6.73;;;5.00;;
2934;SDS011;2462;51.456;7.248;2023-06-22T07:25:35;8.07;;;5.97;;
2934;SDS011;2462;51.456;7.248;2023-06-22T07:28:02;6.67;;;5.97;;
2934;SDS011;2462;51.456;7.248;2023-06-22T07:30:29;6.67;;;5.37;;
2934;SDS011;2462;51.456;7.248;2023-06-22T07:32:56;6.37;;;5.33;;
2934;SDS011;2462;51.456;7.248;2023-06-22T07:35:22;6.43;;;5.50;;
2934;SDS011;2462;51.456;7.248;2023-06-22T07:37:47;9.50;;;5.53;;
2934;SDS011;2462;51.456;7.248;2023-06-22T07:40:13;6.37;;;5.30;;
2934;SDS011;2462;51.456;7.248;2023-06-22T07:42:39;5.90;;;4.97;;
2934;SDS011;2462;51.456;7.248;2023-06-22T07:45:04;8.13;;;5.50;;
2934;SDS011;2462;51.456;7.248;2023-06-22T07:47:33;5.33;;;4.67;;
2934;SDS011;2462;51.456;7.248;2023-06-22T07:50:00;4.97;;;4.57;;
2934;SDS011;2462;51.456;7.248;2023-06-22T07:52:27;4.83;;;4.40;;
2934;SDS011;2462;51.456;7.248;2023-06-22T07:54:53;6.20;;;4.80;;
2934;SDS011;2462;51.456;7.248;2023-06-22T07:57:19;5.63;;;5.00;;
2934;SDS011;2462;51.456;7.248;2023-06-22T07:59:44;6.10;;;5.00;;
2934;SDS011;2462;51.456;7.248;2023-06-22T08:02:10;4.50;;;4.10;;
2934;SDS011;2462;51.456;7.248;2023-06-22T08:04:36;4.50;;;4.20;;
2934;SDS011;2462;51.456;7.248;2023-06-22T08:07:02;5.03;;;4.60;;
2934;SDS011;2462;51.456;7.248;2023-06-22T08:09:31;4.83;;;4.07;;
2934;SDS011;2462;51.456;7.248;2023-06-22T08:11:57;12.03;;;5.00;;
2934;SDS011;2462;51.456;7.248;2023-06-22T08:14:25;5.07;;;4.57;;
2934;SDS011;2462;51.456;7.248;2023-06-22T08:16:51;8.53;;;4.50;;
2934;SDS011;2462;51.456;7.248;2023-06-22T08:19:16;4.80;;;4.40;;
2934;SDS011;2462;51.456;7.248;2023-06-22T08:21:42;5.37;;;4.87;;
2934;SDS011;2462;51.456;7.248;2023-06-22T08:24:08;4.70;;;4.30;;
2934;SDS011;2462;51.456;7.248;2023-06-22T08:26:34;5.10;;;4.57;;
2934;SDS011;2462;51.456;7.248;2023-06-22T08:29:04;5.07;;;4.13;;
2934;SDS011;2462;51.456;7.248;2023-06-22T08:31:30;5.20;;;4.80;;
2934;SDS011;2462;51.456;7.248;2023-06-22T08:33:59;4.63;;;4.23;;
2934;SDS011;2462;51.456;7.248;2023-06-22T08:36:25;5.73;;;5.23;;
2934;SDS011;2462;51.456;7.248;2023-06-22T08:38:54;5.60;;;4.67;;
2934;SDS011;2462;51.456;7.248;2023-06-22T08:41:26;5.10;;;4.57;;
2934;SDS011;2462;51.456;7.248;2023-06-22T08:43:52;5.10;;;4.70;;
2934;SDS011;2462;51.456;7.248;2023-06-22T08:46:18;5.23;;;4.73;;
2934;SDS011;2462;51.456;7.248;2023-06-22T08:48:48;4.63;;;4.23;;
2934;SDS011;2462;51.456;7.248;2023-06-22T08:51:14;5.27;;;4.80;;
2934;SDS011;2462;51.456;7.248;2023-06-22T08:53:39;5.93;;;4.87;;
2934;SDS011;2462;51.456;7.248;2023-06-22T08:56:05;18.90;;;17.10;;
2934;SDS011;2462;51.456;7.248;2023-06-22T08:58:30;21.40;;;19.00;;
2934;SDS011;2462;51.456;7.248;2023-06-22T09:00:56;20.30;;;18.30;;
2934;SDS011;2462;51.456;7.248;2023-06-22T09:03:21;19.97;;;18.17;;
2934;SDS011;2462;51.456;7.248;2023-06-22T09:05:51;23.73;;;19.50;;
2934;SDS011;2462;51.456;7.248;2023-06-22T09:08:17;24.53;;;19.50;;
2934;SDS011;2462;51.456;7.248;2023-06-22T09:10:42;21.20;;;18.90;;
2934;SDS011;2462;51.456;7.248;2023-06-22T09:13:08;21.43;;;19.33;;
2934;SDS011;2462;51.456;7.248;2023-06-22T09:15:33;21.40;;;19.20;;
2934;SDS011;2462;51.456;7.248;2023-06-22T09:17:59;21.80;;;19.60;;
2934;SDS011;2462;51.456;7.248;2023-06-22T09:20:25;21.93;;;18.97;;
2934;SDS011;2462;51.456;7.248;2023-06-22T09:22:51;20.63;;;18.43;;
2934;SDS011;2462;51.456;7.248;2023-06-22T09:25:16;20.83;;;18.67;;
2934;SDS011;2462;51.456;7.248;2023-06-22T09:27:42;22.40;;;18.30;;
2934;SDS011;2462;51.456;7.248;2023-06-22T09:30:07;20.53;;;18.43;;
2934;SDS011;2462;51.456;7.248;2023-06-22T09:32:33;18.40;;;16.60;;
2934;SDS011;2462;51.456;7.248;2023-06-22T09:35:02;25.60;;;19.43;;
2934;SDS011;2462;51.456;7.248;2023-06-22T09:37:30;21.03;;;17.70;;
2934;SDS011;2462;51.456;7.248;2023-06-22T09:39:56;16.60;;;14.87;;
2934;SDS011;2462;51.456;7.248;2023-06-22T09:42:22;19.57;;;17.47;;
2934;SDS011;2462;51.456;7.248;2023-06-22T09:44:47;19.00;;;15.60;;
2934;SDS011;2462;51.456;7.248;2023-06-22T09:47:13;15.70;;;13.60;;
2934;SDS011;2462;51.456;7.248;2023-06-22T09:49:39;13.93;;;12.10;;
2934;SDS011;2462;51.456;7.248;2023-06-22T09:52:05;20.83;;;11.33;;
2934;SDS011;2462;51.456;7.248;2023-06-22T09:54:30;12.50;;;11.33;;
2934;SDS011;2462;51.456;7.248;2023-06-22T09:56:56;10.20;;;9.33;;
2934;SDS011;2462;51.456;7.248;2023-06-22T09:59:21;12.60;;;8.50;;
2934;SDS011;2462;51.456;7.248;2023-06-22T10:01:47;11.60;;;9.40;;
2934;SDS011;2462;51.456;7.248;2023-06-22T10:04:12;10.33;;;9.33;;
2934;SDS011;2462;51.456;7.248;2023-06-22T10:06:38;9.90;;;8.90;;
2934;SDS011;2462;51.456;7.248;2023-06-22T10:09:05;9.80;;;8.90;;
2934;SDS011;2462;51.456;7.248;2023-06-22T10:11:32;10.73;;;9.70;;
2934;SDS011;2462;51.456;7.248;2023-06-22T10:14:01;10.53;;;9.43;;
2934;SDS011;2462;51.456;7.248;2023-06-22T10:16:30;9.90;;;8.90;;
2934;SDS011;2462;51.456;7.248;2023-06-22T10:18:57;9.70;;;8.53;;
2934;SDS011;2462;51.456;7.248;2023-06-22T10:21:22;9.97;;;8.43;;
2934;SDS011;2462;51.456;7.248;2023-06-22T10:23:48;11.50;;;9.17;;
2934;SDS011;2462;51.456;7.248;2023-06-22T10:26:14;10.03;;;9.00;;
2934;SDS011;2462;51.456;7.248;2023-06-22T10:28:39;9.60;;;8.67;;
2934;SDS011;2462;51.456;7.248;2023-06-22T10:31:05;9.80;;;8.57;;
2934;SDS011;2462;51.456;7.248;2023-06-22T10:33:30;10.30;;;8.47;;
2934;SDS011;2462;51.456;7.248;2023-06-22T10:35:56;8.73;;;8.03;;
2934;SDS011;2462;51.456;7.248;2023-06-22T10:38:21;9.20;;;8.10;;
2934;SDS011;2462;51.456;7.248;2023-06-22T10:40:47;9.70;;;8.70;;
2934;SDS011;2462;51.456;7.248;2023-06-22T10:43:12;9.43;;;8.57;;
2934;SDS011;2462;51.456;7.248;2023-06-22T10:45:38;9.93;;;8.93;;
2934;SDS011;2462;51.456;7.248;2023-06-22T10:48:04;11.57;;;8.80;;
2934;SDS011;2462;51.456;7.248;2023-06-22T10:50:29;10.03;;;9.03;;
2934;SDS011;2462;51.456;7.248;2023-06-22T10:52:55;10.10;;;9.10;;
2934;SDS011;2462;51.456;7.248;2023-06-22T10:55:20;11.73;;;9.83;;
2934;SDS011;2462;51.456;7.248;2023-06-22T10:57:46;10.17;;;9.17;;
2934;SDS011;2462;51.456;7.248;2023-06-22T11:00:12;9.23;;;8.43;;
2934;SDS011;2462;51.456;7.248;2023-06-22T11:02:38;10.43;;;9.33;;
2934;SDS011;2462;51.456;7.248;2023-06-22T11:05:04;9.70;;;8.70;;
2934;SDS011;2462;51.456;7.248;2023-06-22T11:07:30;10.00;;;8.43;;
2934;SDS011;2462;51.456;7.248;2023-06-22T11:09:56;10.17;;;9.00;;
2934;SDS011;2462;51.456;7.248;2023-06-22T11:12:21;10.23;;;9.30;;
2934;SDS011;2462;51.456;7.248;2023-06-22T11:14:47;10.00;;;9.10;;
2934;SDS011;2462;51.456;7.248;2023-06-22T11:17:15;12.60;;;10.67;;
2934;SDS011;2462;51.456;7.248;2023-06-22T11:19:40;15.30;;;10.17;;
2934;SDS011;2462;51.456;7.248;2023-06-22T11:22:06;12.50;;;9.70;;
2934;SDS011;2462;51.456;7.248;2023-06-22T11:24:31;15.70;;;8.90;;
2934;SDS011;2462;51.456;7.248;2023-06-22T11:26:57;10.60;;;8.40;;
2934;SDS011;2462;51.456;7.248;2023-06-22T11:29:23;14.53;;;8.97;;
2934;SDS011;2462;51.456;7.248;2023-06-22T11:31:48;11.77;;;8.80;;
2934;SDS011;2462;51.456;7.248;2023-06-22T11:34:14;12.83;;;8.10;;
2934;SDS011;2462;51.456;7.248;2023-06-22T11:36:39;10.63;;;8.70;;
2934;SDS011;2462;51.456;7.248;2023-06-22T11:39:05;12.97;;;8.80;;
2934;SDS011;2462;51.456;7.248;2023-06-22T11:41:34;10.50;;;7.80;;
2934;SDS011;2462;51.456;7.248;2023-06-22T11:44:00;12.50;;;8.60;;
2934;SDS011;2462;51.456;7.248;2023-06-22T11:46:25;18.97;;;7.50;;
2934;SDS011;2462;51.456;7.248;2023-06-22T11:48:51;15.00;;;8.90;;
2934;SDS011;2462;51.456;7.248;2023-06-22T11:51:16;9.20;;;8.30;;
2934;SDS011;2462;51.456;7.248;2023-06-22T11:53:42;14.40;;;9.00;;
2934;SDS011;2462;51.456;7.248;2023-06-22T11:56:07;9.93;;;8.00;;
2934;SDS011;2462;51.456;7.248;2023-06-22T11:58:33;14.37;;;8.37;;
2934;SDS011;2462;51.456;7.248;2023-06-22T12:00:59;11.37;;;8.13;;
2934;SDS011;2462;51.456;7.248;2023-06-22T12:03:24;10.67;;;7.80;;
2934;SDS011;2462;51.456;7.248;2023-06-22T12:05:50;10.87;;;8.77;;
2934;SDS011;2462;51.456;7.248;2023-06-22T12:08:17;9.20;;;8.00;;
2934;SDS011;2462;51.456;7.248;2023-06-22T12:10:42;11.20;;;7.30;;
2934;SDS011;2462;51.456;7.248;2023-06-22T12:13:08;8.90;;;7.47;;
2934;SDS011;2462;51.456;7.248;2023-06-22T12:15:33;10.37;;;7.93;;
2934;SDS011;2462;51.456;7.248;2023-06-22T12:17:59;8.50;;;7.03;;
2934;SDS011;2462;51.456;7.248;2023-06-22T12:20:26;8.20;;;7.03;;
2934;SDS011;2462;51.456;7.248;2023-06-22T12:22:51;10.63;;;7.83;;
2934;SDS011;2462;51.456;7.248;2023-06-22T12:25:17;8.73;;;7.83;;
2934;SDS011;2462;51.456;7.248;2023-06-22T12:27:43;8.70;;;7.90;;
2934;SDS011;2462;51.456;7.248;2023-06-22T12:30:08;9.60;;;7.73;;
2934;SDS011;2462;51.456;7.248;2023-06-22T12:32:34;12.07;;;7.93;;
2934;SDS011;2462;51.456;7.248;2023-06-22T12:35:00;11.40;;;8.53;;
2934;SDS011;2462;51.456;7.248;2023-06-22T12:37:25;8.70;;;7.87;;
2934;SDS011;2462;51.456;7.248;2023-06-22T12:39:51;9.77;;;8.80;;
2934;SDS011;2462;51.456;7.248;2023-06-22T12:42:18;8.37;;;7.50;;
2934;SDS011;2462;51.456;7.248;2023-06-22T12:44:43;8.77;;;7.90;;
2934;SDS011;2462;51.456;7.248;2023-06-22T12:47:09;10.57;;;7.40;;
2934;SDS011;2462;51.456;7.248;2023-06-22T12:49:35;7.90;;;7.10;;
2934;SDS011;2462;51.456;7.248;2023-06-22T12:52:01;11.13;;;6.80;;
2934;SDS011;2462;51.456;7.248;2023-06-22T12:54:27;9.10;;;7.00;;
2934;SDS011;2462;51.456;7.248;2023-06-22T12:56:54;8.93;;;7.33;;
2934;SDS011;2462;51.456;7.248;2023-06-22T12:59:19;8.77;;;7.87;;
2934;SDS011;2462;51.456;7.248;2023-06-22T13:01:45;8.10;;;7.40;;
2934;SDS011;2462;51.456;7.248;2023-06-22T13:04:11;7.88;;;7.18;;
2934;SDS011;2462;51.456;7.248;2023-06-22T13:06:39;9.30;;;8.30;;
2934;SDS011;2462;51.456;7.248;2023-06-22T13:09:05;10.20;;;8.30;;
2934;SDS011;2462;51.456;7.248;2023-06-22T13:11:31;10.53;;;8.00;;
2934;SDS011;2462;51.456;7.248;2023-06-22T13:13:57;8.87;;;7.97;;
2934;SDS011;2462;51.456;7.248;2023-06-22T13:16:22;7.90;;;7.13;;
2934;SDS011;2462;51.456;7.248;2023-06-22T13:18:48;9.13;;;7.50;;
2934;SDS011;2462;51.456;7.248;2023-06-22T13:21:13;8.13;;;7.37;;
2934;SDS011;2462;51.456;7.248;2023-06-22T13:23:39;8.93;;;6.97;;
2934;SDS011;2462;51.456;7.248;2023-06-22T13:26:05;9.67;;;6.97;;
2934;SDS011;2462;51.456;7.248;2023-06-22T13:28:30;7.40;;;6.70;;
2934;SDS011;2462;51.456;7.248;2023-06-22T13:30:56;8.80;;;8.00;;
2934;SDS011;2462;51.456;7.248;2023-06-22T13:33:22;8.23;;;6.90;;
2934;SDS011;2462;51.456;7.248;2023-06-22T13:35:48;8.57;;;6.53;;
2934;SDS011;2462;51.456;7.248;2023-06-22T13:38:13;10.90;;;7.10;;
2934;SDS011;2462;51.456;7.248;2023-06-22T13:40:39;7.97;;;6.83;;
2934;SDS011;2462;51.456;7.248;2023-06-22T13:43:05;7.03;;;6.30;;
2934;SDS011;2462;51.456;7.248;2023-06-22T13:45:31;8.03;;;6.50;;
2934;SDS011;2462;51.456;7.248;2023-06-22T13:47:57;10.60;;;6.70;;
2934;SDS011;2462;51.456;7.248;2023-06-22T13:50:22;9.60;;;8.30;;
2934;SDS011;2462;51.456;7.248;2023-06-22T13:52:48;7.90;;;7.20;;
2934;SDS011;2462;51.456;7.248;2023-06-22T13:55:13;8.03;;;7.23;;
2934;SDS011;2462;51.456;7.248;2023-06-22T13:57:39;8.50;;;7.70;;
2934;SDS011;2462;51.456;7.248;2023-06-22T14:00:06;8.57;;;7.80;;
2934;SDS011;2462;51.456;7.248;2023-06-22T14:02:33;7.63;;;6.93;;
2934;SDS011;2462;51.456;7.248;2023-06-22T14:04:58;6.83;;;6.20;;
2934;SDS011;2462;51.456;7.248;2023-06-22T14:07:24;8.40;;;7.07;;
2934;SDS011;2462;51.456;7.248;2023-06-22T14:09:50;8.13;;;6.93;;
2934;SDS011;2462;51.456;7.248;2023-06-22T14:12:15;7.10;;;6.50;;
2934;SDS011;2462;51.456;7.248;2023-06-22T14:14:44;7.63;;;6.67;;
2934;SDS011;2462;51.456;7.248;2023-06-22T14:17:12;8.50;;;6.90;;
2934;SDS011;2462;51.456;7.248;2023-06-22T14:19:38;7.47;;;6.77;;
2934;SDS011;2462;51.456;7.248;2023-06-22T14:22:03;7.10;;;6.33;;
2934;SDS011;2462;51.456;7.248;2023-06-22T14:24:29;7.07;;;6.37;;
2934;SDS011;2462;51.456;7.248;2023-06-22T14:26:55;7.40;;;6.73;;
2934;SDS011;2462;51.456;7.248;2023-06-22T14:29:25;7.67;;;6.63;;
2934;SDS011;2462;51.456;7.248;2023-06-22T14:31:50;8.50;;;6.50;;
2934;SDS011;2462;51.456;7.248;2023-06-22T14:34:16;9.80;;;6.60;;
2934;SDS011;2462;51.456;7.248;2023-06-22T14:36:42;8.03;;;6.17;;
2934;SDS011;2462;51.456;7.248;2023-06-22T14:39:08;7.77;;;6.97;;
2934;SDS011;2462;51.456;7.248;2023-06-22T14:41:34;6.50;;;5.90;;
2934;SDS011;2462;51.456;7.248;2023-06-22T14:43:59;7.60;;;6.90;;
2934;SDS011;2462;51.456;7.248;2023-06-22T14:46:25;6.33;;;5.80;;
2934;SDS011;2462;51.456;7.248;2023-06-22T14:48:52;6.90;;;6.20;;
2934;SDS011;2462;51.456;7.248;2023-06-22T14:51:18;6.13;;;5.53;;
2934;SDS011;2462;51.456;7.248;2023-06-22T14:53:44;6.57;;;5.97;;
2934;SDS011;2462;51.456;7.248;2023-06-22T14:56:10;8.73;;;6.93;;
2934;SDS011;2462;51.456;7.248;2023-06-22T14:58:37;7.80;;;6.40;;
2934;SDS011;2462;51.456;7.248;2023-06-22T15:01:04;6.97;;;6.30;;
2934;SDS011;2462;51.456;7.248;2023-06-22T15:03:33;6.73;;;6.07;;
2934;SDS011;2462;51.456;7.248;2023-06-22T15:06:00;7.10;;;6.50;;
2934;SDS011;2462;51.456;7.248;2023-06-22T15:08:26;6.20;;;5.60;;
2934;SDS011;2462;51.456;7.248;2023-06-22T15:10:52;6.50;;;6.00;;
2934;SDS011;2462;51.456;7.248;2023-06-22T15:13:18;6.67;;;5.97;;